Time;durP1;ratioP1;P1;durP2;ratioP2;P2;SDS_P1;SDS_P2;PMS_P1;PMS_P2;Temp;Humidity;BMP_temperature;BMP_pressure;BME280_temperature;BME280_humidity;BME280_pressure;Samples;Min_cycle;Max_cycle;Signal;HPM_P1;HPM_P2
2021/09/28 00:00:27;;;;;;;14.07;10.80;;;;;;;;;;4995936;28;20193;-72
2021/09/28 00:03:31;;;;;;;11.93;9.67;;;;;;;;;;4984350;28;20185;-72
2021/09/28 00:06:35;;;;;;;11.77;10.07;;;;;;;;;;4996094;28;20533;-73
2021/09/28 00:09:39;;;;;;;13.90;11.17;;;;;;;;;;4995857;28;20197;-72
2021/09/28 00:12:45;;;;;;;12.00;9.87;;;;;;;;;;4995595;28;20217;-73
2021/09/28 00:15:49;;;;;;;13.27;11.17;;;;;;;;;;4996018;28;20190;-72
2021/09/28 00:18:53;;;;;;;14.20;11.23;;;;;;;;;;4995661;28;20189;-73
2021/09/28 00:21:57;;;;;;;15.10;10.93;;;;;;;;;;4995465;28;20221;-72
2021/09/28 00:25:02;;;;;;;15.07;11.13;;;;;;;;;;4995519;28;20583;-73
2021/09/28 00:28:06;;;;;;;15.13;11.70;;;;;;;;;;4995490;28;20185;-72
2021/09/28 00:31:10;;;;;;;15.50;11.20;;;;;;;;;;4995469;28;20228;-73
2021/09/28 00:34:14;;;;;;;15.77;11.03;;;;;;;;;;4995327;28;20189;-73
2021/09/28 00:37:18;;;;;;;15.33;11.10;;;;;;;;;;4995287;28;20189;-73
2021/09/28 00:40:22;;;;;;;13.30;10.93;;;;;;;;;;4995449;28;20201;-72
2021/09/28 00:43:42;;;;;;;15.40;10.00;;;;;;;;;;4995738;28;20659;-73
2021/09/28 00:46:46;;;;;;;18.27;11.90;;;;;;;;;;4995274;28;20888;-72
2021/09/28 00:49:50;;;;;;;14.17;9.90;;;;;;;;;;4995006;28;20213;-73
2021/09/28 00:52:54;;;;;;;15.37;11.23;;;;;;;;;;4982931;28;20673;-73
2021/09/28 00:55:59;;;;;;;15.27;11.13;;;;;;;;;;4994927;28;20189;-73
2021/09/28 00:59:04;;;;;;;17.90;11.60;;;;;;;;;;4995181;28;20189;-73
2021/09/28 01:02:11;;;;;;;15.67;10.77;;;;;;;;;;4994763;28;20220;-73
2021/09/28 01:05:15;;;;;;;17.97;11.13;;;;;;;;;;4995072;28;20192;-73
2021/09/28 01:08:19;;;;;;;12.77;10.67;;;;;;;;;;4994639;28;20224;-72
2021/09/28 01:11:23;;;;;;;16.67;10.87;;;;;;;;;;4994849;28;20240;-72
2021/09/28 01:14:27;;;;;;;13.40;10.77;;;;;;;;;;4994814;28;20197;-73
2021/09/28 01:17:31;;;;;;;14.07;10.80;;;;;;;;;;4994852;28;20185;-73
2021/09/28 01:20:36;;;;;;;15.93;11.53;;;;;;;;;;4994701;28;20220;-72
2021/09/28 01:23:44;;;;;;;15.13;11.13;;;;;;;;;;4993703;28;20189;-73
2021/09/28 01:26:48;;;;;;;15.33;11.33;;;;;;;;;;4993906;28;20202;-72
2021/09/28 01:29:52;;;;;;;15.40;11.07;;;;;;;;;;4982417;28;20557;-73
2021/09/28 01:32:57;;;;;;;16.33;10.93;;;;;;;;;;4994172;28;20233;-73
2021/09/28 01:36:01;;;;;;;19.47;10.63;;;;;;;;;;4993807;28;20209;-73
2021/09/28 01:39:08;;;;;;;15.03;11.40;;;;;;;;;;4994003;28;20217;-73
2021/09/28 01:42:12;;;;;;;17.63;11.70;;;;;;;;;;4994401;28;20224;-73
2021/09/28 01:45:16;;;;;;;15.00;11.57;;;;;;;;;;4994142;28;20220;-73
2021/09/28 01:48:20;;;;;;;14.40;11.40;;;;;;;;;;4994409;28;20641;-73
2021/09/28 01:51:24;;;;;;;14.93;10.63;;;;;;;;;;4993461;28;20229;-73
2021/09/28 01:54:28;;;;;;;17.33;11.37;;;;;;;;;;4982161;28;20537;-73
2021/09/28 01:57:33;;;;;;;13.70;11.13;;;;;;;;;;4994550;28;20189;-73
2021/09/28 02:00:37;;;;;;;14.93;11.43;;;;;;;;;;4993928;28;20217;-73
2021/09/28 02:03:41;;;;;;;15.80;10.80;;;;;;;;;;4982046;28;20186;-74
2021/09/28 02:06:46;;;;;;;16.50;11.30;;;;;;;;;;4994088;28;20282;-73
2021/09/28 02:09:50;;;;;;;13.00;10.33;;;;;;;;;;4993868;28;20201;-73
2021/09/28 02:12:54;;;;;;;16.43;11.03;;;;;;;;;;4994033;28;20217;-74
2021/09/28 02:15:58;;;;;;;14.77;10.37;;;;;;;;;;4981908;28;20201;-74
2021/09/28 02:19:02;;;;;;;17.03;11.70;;;;;;;;;;4996819;28;20640;-73
2021/09/28 02:22:06;;;;;;;13.77;10.60;;;;;;;;;;4998043;28;20232;-74
2021/09/28 02:25:13;;;;;;;14.37;10.83;;;;;;;;;;4997773;28;20198;-74
2021/09/28 02:28:17;;;;;;;14.93;11.47;;;;;;;;;;4997983;28;20185;-74
2021/09/28 02:31:22;;;;;;;14.23;10.70;;;;;;;;;;4985592;28;20228;-74
2021/09/28 02:34:26;;;;;;;14.70;11.17;;;;;;;;;;4997284;28;20217;-74
2021/09/28 02:37:31;;;;;;;19.37;11.97;;;;;;;;;;4997614;28;20541;-74
2021/09/28 02:40:35;;;;;;;14.53;11.30;;;;;;;;;;4997656;28;20225;-74
2021/09/28 02:43:39;;;;;;;17.13;12.37;;;;;;;;;;4997719;28;20521;-74
2021/09/28 02:46:44;;;;;;;15.90;11.83;;;;;;;;;;4997546;28;20189;-73
2021/09/28 02:49:48;;;;;;;16.67;11.83;;;;;;;;;;4997600;28;20702;-73
2021/09/28 02:52:52;;;;;;;16.30;11.97;;;;;;;;;;4997059;28;20236;-73
2021/09/28 02:55:56;;;;;;;15.40;10.97;;;;;;;;;;4985692;28;20208;-73
2021/09/28 02:59:00;;;;;;;13.80;11.20;;;;;;;;;;4997433;28;20533;-74
2021/09/28 03:02:05;;;;;;;15.27;11.73;;;;;;;;;;4997043;28;20225;-73
2021/09/28 03:05:09;;;;;;;14.57;10.47;;;;;;;;;;4997328;28;20181;-74
2021/09/28 03:08:14;;;;;;;14.63;11.73;;;;;;;;;;4996903;28;20213;-73
2021/09/28 03:11:18;;;;;;;12.27;10.07;;;;;;;;;;4997116;28;20232;-73
2021/09/28 03:14:23;;;;;;;15.30;10.87;;;;;;;;;;4996776;28;20213;-74
2021/09/28 03:17:27;;;;;;;15.73;11.37;;;;;;;;;;4996806;28;20684;-74
2021/09/28 03:20:31;;;;;;;16.23;11.47;;;;;;;;;;4996914;28;20201;-73
2021/09/28 03:23:35;;;;;;;16.13;12.03;;;;;;;;;;4997006;28;20190;-73
2021/09/28 03:26:39;;;;;;;18.43;12.27;;;;;;;;;;4973889;28;20652;-74
2021/09/28 03:29:44;;;;;;;16.03;12.20;;;;;;;;;;4995664;28;20205;-73
2021/09/28 03:32:48;;;;;;;17.20;12.47;;;;;;;;;;4996996;28;20241;-73
2021/09/28 03:35:52;;;;;;;19.40;12.67;;;;;;;;;;4996757;28;20193;-74
2021/09/28 03:38:57;;;;;;;19.83;14.33;;;;;;;;;;5021307;23;20239;-73
2021/09/28 03:42:01;;;;;;;23.67;15.53;;;;;;;;;;5035960;28;20219;-73
2021/09/28 03:45:06;;;;;;;21.43;14.07;;;;;;;;;;5035653;28;20203;-73
2021/09/28 03:48:11;;;;;;;20.67;14.00;;;;;;;;;;5035375;28;20184;-73
2021/09/28 03:51:16;;;;;;;20.03;13.50;;;;;;;;;;5023845;28;20223;-73
2021/09/28 03:54:19;;;;;;;19.93;13.30;;;;;;;;;;5035208;28;20224;-73
2021/09/28 03:57:24;;;;;;;34.13;14.63;;;;;;;;;;5022693;28;20547;-72
2021/09/28 04:00:29;;;;;;;22.53;12.60;;;;;;;;;;5034927;28;20714;-73
2021/09/28 04:03:33;;;;;;;23.60;13.87;;;;;;;;;;5036539;28;20192;-73
2021/09/28 04:06:37;;;;;;;22.90;14.17;;;;;;;;;;5035202;28;20219;-73
2021/09/28 04:09:41;;;;;;;22.07;13.63;;;;;;;;;;5035230;28;20208;-73
2021/09/28 04:12:46;;;;;;;16.80;12.77;;;;;;;;;;5022266;28;20199;-72
2021/09/28 04:15:52;;;;;;;20.97;14.17;;;;;;;;;;5015377;28;20180;-73
2021/09/28 04:18:56;;;;;;;18.00;12.60;;;;;;;;;;5003797;28;20193;-73
2021/09/28 04:22:01;;;;;;;15.50;11.70;;;;;;;;;;5015134;28;20223;-73
2021/09/28 04:25:06;;;;;;;17.97;12.87;;;;;;;;;;5008376;28;20188;-73
2021/09/28 04:28:11;;;;;;;16.77;12.17;;;;;;;;;;5000325;28;20211;-73
2021/09/28 04:31:16;;;;;;;17.97;11.40;;;;;;;;;;4991778;28;20232;-73
2021/09/28 04:34:20;;;;;;;18.00;11.53;;;;;;;;;;5014717;28;20213;-72
2021/09/28 04:37:24;;;;;;;16.80;11.10;;;;;;;;;;5003451;28;20182;-73
2021/09/28 04:40:28;;;;;;;15.63;10.80;;;;;;;;;;5034111;28;20219;-73
2021/09/28 04:43:32;;;;;;;17.67;10.27;;;;;;;;;;5034424;28;20204;-73
2021/09/28 04:46:37;;;;;;;11.93;9.13;;;;;;;;;;5034438;28;20200;-72
2021/09/28 04:49:40;;;;;;;13.03;9.63;;;;;;;;;;5034729;28;20181;-73
2021/09/28 04:52:44;;;;;;;12.53;9.40;;;;;;;;;;5033773;28;20189;-73
2021/09/28 04:55:49;;;;;;;11.10;8.47;;;;;;;;;;5034597;28;20184;-73
2021/09/28 04:58:53;;;;;;;13.57;9.13;;;;;;;;;;5034075;28;20208;-73
2021/09/28 05:01:57;;;;;;;15.70;9.10;;;;;;;;;;5033418;28;20220;-73
2021/09/28 05:05:01;;;;;;;12.90;8.93;;;;;;;;;;5034449;28;20173;-73
2021/09/28 05:08:05;;;;;;;14.00;9.70;;;;;;;;;;5014351;28;20186;-73
2021/09/28 05:11:12;;;;;;;10.47;9.20;;;;;;;;;;5019948;28;20573;-72
2021/09/28 05:14:16;;;;;;;11.50;8.47;;;;;;;;;;5021525;28;20216;-73
2021/09/28 05:17:20;;;;;;;9.20;8.00;;;;;;;;;;5033666;28;20189;-73
2021/09/28 05:20:24;;;;;;;9.57;8.10;;;;;;;;;;5010415;28;20180;-73
2021/09/28 05:23:28;;;;;;;10.87;8.07;;;;;;;;;;5033899;28;20663;-74
2021/09/28 05:26:33;;;;;;;10.87;7.63;;;;;;;;;;5007932;28;20189;-72
2021/09/28 05:29:37;;;;;;;12.40;7.63;;;;;;;;;;5002224;28;20182;-73
2021/09/28 05:32:41;;;;;;;9.43;6.53;;;;;;;;;;5030023;28;20193;-73
2021/09/28 05:35:45;;;;;;;10.70;7.00;;;;;;;;;;5021869;28;20516;-73
2021/09/28 05:38:49;;;;;;;7.40;5.70;;;;;;;;;;5033525;28;20543;-73
2021/09/28 05:42:07;;;;;;;9.93;5.87;;;;;;;;;;5035517;28;20220;-73
2021/09/28 05:45:12;;;;;;;8.23;5.33;;;;;;;;;;5021342;28;20193;-73
2021/09/28 05:48:16;;;;;;;6.90;4.97;;;;;;;;;;5021720;28;20173;-73
2021/09/28 05:51:21;;;;;;;8.40;5.13;;;;;;;;;;5009947;28;20216;-73
2021/09/28 05:54:27;;;;;;;9.03;4.87;;;;;;;;;;5032856;28;20204;-73
2021/09/28 05:57:31;;;;;;;7.00;4.80;;;;;;;;;;5033620;28;20507;-73
2021/09/28 06:00:35;;;;;;;6.57;4.30;;;;;;;;;;5033737;28;20181;-73
2021/09/28 06:03:39;;;;;;;6.53;4.00;;;;;;;;;;5033846;28;20185;-73
2021/09/28 06:06:43;;;;;;;8.70;3.93;;;;;;;;;;5021096;28;20659;-73
2021/09/28 06:09:48;;;;;;;4.03;3.17;;;;;;;;;;5033737;28;20196;-73
2021/09/28 06:12:52;;;;;;;7.57;3.80;;;;;;;;;;5021087;28;20632;-73
2021/09/28 06:15:57;;;;;;;4.43;2.80;;;;;;;;;;5021243;28;20176;-72
2021/09/28 06:19:01;;;;;;;4.67;2.13;;;;;;;;;;5033176;28;20663;-73
2021/09/28 06:22:06;;;;;;;2.87;1.70;;;;;;;;;;5001450;28;20691;-73
2021/09/28 06:25:10;;;;;;;4.30;1.43;;;;;;;;;;5013417;28;20182;-73
2021/09/28 06:28:14;;;;;;;1.30;1.20;;;;;;;;;;5013672;28;20186;-74
2021/09/28 06:31:19;;;;;;;2.43;1.07;;;;;;;;;;5001224;28;20221;-73
2021/09/28 06:34:23;;;;;;;3.00;1.33;;;;;;;;;;4989968;28;20210;-73
2021/09/28 06:37:27;;;;;;;2.80;1.20;;;;;;;;;;5013340;28;20182;-73
2021/09/28 06:40:32;;;;;;;1.50;1.07;;;;;;;;;;5001067;28;20545;-73
2021/09/28 06:43:36;;;;;;;2.30;1.20;;;;;;;;;;5013529;28;20641;-73
2021/09/28 06:46:40;;;;;;;2.70;1.17;;;;;;;;;;5001260;28;20181;-73
2021/09/28 06:49:45;;;;;;;2.60;1.10;;;;;;;;;;5004652;28;20524;-73
2021/09/28 06:52:49;;;;;;;1.97;1.03;;;;;;;;;;5013317;28;20200;-73
2021/09/28 06:55:53;;;;;;;2.13;1.10;;;;;;;;;;5020729;28;20173;-73
2021/09/28 06:58:58;;;;;;;1.20;1.00;;;;;;;;;;5032848;28;20180;-73
2021/09/28 07:02:02;;;;;;;3.20;1.10;;;;;;;;;;5032760;28;20220;-73
2021/09/28 07:05:11;;;;;;;1.40;1.30;;;;;;;;;;5023427;28;20516;-73
2021/09/28 07:08:16;;;;;;;1.50;1.20;;;;;;;;;;5036440;28;20185;-73
2021/09/28 07:11:20;;;;;;;4.37;1.20;;;;;;;;;;5036802;28;20213;-73
2021/09/28 07:14:24;;;;;;;2.47;1.40;;;;;;;;;;5036417;28;20208;-73
2021/09/28 07:17:28;;;;;;;2.53;1.40;;;;;;;;;;5036798;28;20185;-73
2021/09/28 07:20:33;;;;;;;2.30;1.30;;;;;;;;;;5036208;28;20517;-72
2021/09/28 07:23:38;;;;;;;3.70;1.70;;;;;;;;;;5012748;28;20181;-73
2021/09/28 07:26:43;;;;;;;3.17;1.70;;;;;;;;;;5024212;28;20628;-73
2021/09/28 07:29:47;;;;;;;2.50;1.40;;;;;;;;;;5036297;28;20188;-73
2021/09/28 07:32:52;;;;;;;6.00;1.60;;;;;;;;;;5012584;28;20176;-73
2021/09/28 07:35:56;;;;;;;5.63;1.50;;;;;;;;;;5035917;28;20208;-72
2021/09/28 07:39:01;;;;;;;3.33;1.80;;;;;;;;;;5035128;28;20208;-73
2021/09/28 07:42:06;;;;;;;2.87;2.00;;;;;;;;;;5035728;28;20683;-73
2021/09/28 07:45:10;;;;;;;3.93;2.10;;;;;;;;;;5023644;28;20177;-73
2021/09/28 07:48:15;;;;;;;2.17;1.97;;;;;;;;;;5035355;28;20197;-73
2021/09/28 07:51:19;;;;;;;3.20;2.10;;;;;;;;;;5035649;28;20220;-73
2021/09/28 07:54:24;;;;;;;5.60;2.10;;;;;;;;;;5035762;28;20209;-73
2021/09/28 07:57:28;;;;;;;2.33;1.90;;;;;;;;;;5035522;28;20184;-73
2021/09/28 08:00:32;;;;;;;4.17;2.37;;;;;;;;;;5035866;28;20177;-72
2021/09/28 08:03:36;;;;;;;4.50;2.70;;;;;;;;;;5020682;28;20185;-73
2021/09/28 08:06:41;;;;;;;3.67;2.77;;;;;;;;;;5035527;28;20177;-72
2021/09/28 08:09:45;;;;;;;7.07;3.90;;;;;;;;;;5011813;28;20513;-73
2021/09/28 08:12:49;;;;;;;5.20;2.73;;;;;;;;;;5035529;28;20184;-73
2021/09/28 08:15:55;;;;;;;4.40;2.87;;;;;;;;;;5034170;28;20209;-73
2021/09/28 08:18:59;;;;;;;8.57;3.20;;;;;;;;;;5035361;28;20193;-73
2021/09/28 08:22:04;;;;;;;4.67;3.33;;;;;;;;;;5003339;28;20225;-73
2021/09/28 08:25:11;;;;;;;5.97;3.13;;;;;;;;;;5015206;28;20181;-73
2021/09/28 08:31:46;;;;;;;5.87;3.37;;;;;;;;;;5003032;28;20225;-72
2021/09/28 08:34:51;;;;;;;4.53;3.30;;;;;;;;;;5030126;28;20224;-72
2021/09/28 08:37:56;;;;;;;4.70;3.70;;;;;;;;;;5031579;28;20193;-73
2021/09/28 08:41:01;;;;;;;5.73;3.70;;;;;;;;;;5034327;28;20212;-73
2021/09/28 08:44:05;;;;;;;5.13;3.47;;;;;;;;;;5003038;28;20178;-73
2021/09/28 08:47:09;;;;;;;6.27;3.90;;;;;;;;;;5015059;28;20181;-73
2021/09/28 08:50:16;;;;;;;6.83;3.13;;;;;;;;;;5028831;28;20185;-73
2021/09/28 08:53:21;;;;;;;4.83;3.33;;;;;;;;;;5030027;28;20193;-72
2021/09/28 08:56:27;;;;;;;6.10;3.60;;;;;;;;;;5033286;28;20181;-73
2021/09/28 08:59:39;;;;;;;4.83;3.67;;;;;;;;;;5033742;28;20192;-73
2021/09/28 09:02:46;;;;;;;5.13;3.53;;;;;;;;;;5018251;28;20192;-73
2021/09/28 09:05:50;;;;;;;5.30;3.20;;;;;;;;;;5033818;28;20200;-72
2021/09/28 09:09:00;;;;;;;6.33;3.70;;;;;;;;;;5022267;28;20647;-73
2021/09/28 09:12:04;;;;;;;5.73;3.87;;;;;;;;;;5033803;28;20228;-72
2021/09/28 09:15:22;;;;;;;6.07;4.73;;;;;;;;;;5033429;28;20682;-72
2021/09/28 09:18:25;;;;;;;10.57;5.07;;;;;;;;;;5006182;28;20189;-73
2021/09/28 09:21:42;;;;;;;7.53;5.17;;;;;;;;;;5003378;28;20220;-73
2021/09/28 09:24:54;;;;;;;10.37;5.73;;;;;;;;;;5033611;28;20192;-72
2021/09/28 09:27:58;;;;;;;6.93;5.30;;;;;;;;;;5020422;28;20204;-72
2021/09/28 09:31:10;;;;;;;7.70;5.03;;;;;;;;;;5021075;28;20224;-73
2021/09/28 09:34:22;;;;;;;5.97;5.03;;;;;;;;;;5021731;28;20200;-73
2021/09/28 09:37:36;;;;;;;10.80;4.70;;;;;;;;;;5021184;28;20185;-73
2021/09/28 09:40:46;;;;;;;6.63;4.80;;;;;;;;;;5047565;23;20229;-75
2021/09/28 09:44:01;;;;;;;9.13;4.17;;;;;;;;;;5032894;28;20188;-76
2021/09/28 09:47:06;;;;;;;9.30;4.60;;;;;;;;;;5012619;28;20181;-76
2021/09/28 09:50:12;;;;;;;8.33;4.57;;;;;;;;;;5021397;28;20193;-76
2021/09/28 09:53:16;;;;;;;5.63;4.50;;;;;;;;;;5033525;28;20227;-76
2021/09/28 09:56:21;;;;;;;5.23;4.47;;;;;;;;;;5020782;28;20216;-77
2021/09/28 09:59:26;;;;;;;6.33;4.20;;;;;;;;;;5002488;28;20177;-76
2021/09/28 10:02:30;;;;;;;7.87;5.00;;;;;;;;;;5034342;28;20670;-77
2021/09/28 10:05:34;;;;;;;9.13;5.77;;;;;;;;;;5021514;28;20173;-76
2021/09/28 10:08:44;;;;;;;9.90;5.40;;;;;;;;;;5033318;28;20200;-77
2021/09/28 10:11:53;;;;;;;6.63;5.70;;;;;;;;;;5020829;28;20694;-77
2021/09/28 10:15:14;;;;;;;7.97;5.50;;;;;;;;;;5021414;28;20213;-76
2021/09/28 10:18:38;;;;;;;10.13;4.60;;;;;;;;;;5033239;28;20197;-77
2021/09/28 10:21:43;;;;;;;6.43;4.23;;;;;;;;;;5033335;28;20224;-77
2021/09/28 10:24:47;;;;;;;7.13;4.23;;;;;;;;;;5021332;28;20628;-77
2021/09/28 10:28:03;;;;;;;4.83;4.20;;;;;;;;;;5033332;28;20200;-77
2021/09/28 10:31:28;;;;;;;5.37;4.60;;;;;;;;;;5020898;28;20221;-77
2021/09/28 10:38:07;;;;;;;5.40;3.60;;;;;;;;;;5020929;28;20185;-77
2021/09/28 10:41:34;;;;;;;6.87;4.37;;;;;;;;;;5036775;28;20220;-77
2021/09/28 10:44:41;;;;;;;5.37;4.20;;;;;;;;;;5037143;28;20184;-77
2021/09/28 10:47:52;;;;;;;6.47;4.80;;;;;;;;;;5024965;28;20173;-76
2021/09/28 10:51:07;;;;;;;7.20;4.77;;;;;;;;;;5024438;28;20216;-77
2021/09/28 10:54:11;;;;;;;8.00;4.10;;;;;;;;;;5024253;28;20177;-77
2021/09/28 10:57:17;;;;;;;9.90;3.93;;;;;;;;;;5036668;28;20505;-77
2021/09/28 11:00:26;;;;;;;6.20;4.13;;;;;;;;;;5036536;28;20185;-77
2021/09/28 11:03:51;;;;;;;5.67;3.63;;;;;;;;;;5036464;28;20197;-77
2021/09/28 11:06:58;;;;;;;5.97;3.30;;;;;;;;;;5023773;28;20185;-76
2021/09/28 11:10:07;;;;;;;3.70;3.23;;;;;;;;;;5039118;28;20189;-78
2021/09/28 11:13:12;;;;;;;4.37;3.00;;;;;;;;;;5025939;28;20185;-78
2021/09/28 11:16:19;;;;;;;4.80;2.70;;;;;;;;;;5015771;28;20208;-78
2021/09/28 11:19:38;;;;;;;8.30;2.93;;;;;;;;;;5027974;28;21397;-78
2021/09/28 11:22:56;;;;;;;7.70;3.20;;;;;;;;;;5016720;28;20197;-78
2021/09/28 11:26:00;;;;;;;7.00;3.10;;;;;;;;;;5016313;28;20197;-78
2021/09/28 11:29:06;;;;;;;8.47;2.63;;;;;;;;;;5027869;28;20184;-78
2021/09/28 11:32:11;;;;;;;4.17;2.83;;;;;;;;;;5024405;28;20220;-78
2021/09/28 11:35:15;;;;;;;6.03;2.80;;;;;;;;;;5017762;28;20220;-77
2021/09/28 11:38:27;;;;;;;5.30;2.80;;;;;;;;;;5023245;28;20193;-76
2021/09/28 11:41:35;;;;;;;8.27;2.97;;;;;;;;;;5027071;28;20220;-78
2021/09/28 11:44:43;;;;;;;4.57;3.30;;;;;;;;;;5041003;28;20184;-78
2021/09/28 11:47:47;;;;;;;10.53;3.27;;;;;;;;;;5041841;28;20200;-79
2021/09/28 11:50:51;;;;;;;6.73;3.60;;;;;;;;;;5028014;28;20560;-78
2021/09/28 11:53:58;;;;;;;6.40;3.83;;;;;;;;;;5029675;28;20193;-79
2021/09/28 11:57:02;;;;;;;5.53;3.57;;;;;;;;;;5042489;28;20205;-79
2021/09/28 12:00:07;;;;;;;7.00;3.60;;;;;;;;;;5041965;28;20188;-78
2021/09/28 12:03:23;;;;;;;11.77;3.63;;;;;;;;;;5028961;28;20189;-79
2021/09/28 12:06:35;;;;;;;8.07;4.40;;;;;;;;;;5028534;28;20181;-78
2021/09/28 12:09:39;;;;;;;5.33;3.37;;;;;;;;;;5018540;28;20192;-78
2021/09/28 12:12:44;;;;;;;4.77;3.10;;;;;;;;;;5028183;28;20173;-78
2021/09/28 12:16:05;;;;;;;6.07;4.03;;;;;;;;;;5026906;28;20209;-79
2021/09/28 12:19:13;;;;;;;11.23;3.20;;;;;;;;;;5029064;28;20189;-79
2021/09/28 12:22:35;;;;;;;7.73;3.70;;;;;;;;;;5005796;28;20221;-79
2021/09/28 12:25:39;;;;;;;6.20;3.80;;;;;;;;;;5029471;28;20628;-79
2021/09/28 12:28:43;;;;;;;8.73;3.77;;;;;;;;;;5029293;28;20184;-79
2021/09/28 12:31:49;;;;;;;5.33;3.57;;;;;;;;;;5029108;28;20220;-79
2021/09/28 12:34:55;;;;;;;6.80;3.87;;;;;;;;;;5028562;28;20197;-78
2021/09/28 12:38:02;;;;;;;5.47;3.50;;;;;;;;;;5004082;28;20181;-78
2021/09/28 12:41:09;;;;;;;8.20;3.93;;;;;;;;;;5040579;28;20224;-79
2021/09/28 12:44:22;;;;;;;3.67;3.10;;;;;;;;;;5028777;28;20517;-79
2021/09/28 12:47:48;;;;;;;6.70;4.13;;;;;;;;;;5028480;28;20169;-79
2021/09/28 12:51:13;;;;;;;5.40;3.87;;;;;;;;;;5022271;28;20228;-78
2021/09/28 12:54:19;;;;;;;5.03;3.13;;;;;;;;;;5041541;28;20170;-79
2021/09/28 12:57:23;;;;;;;5.37;3.60;;;;;;;;;;5041110;28;20209;-79
2021/09/28 13:00:27;;;;;;;3.80;2.80;;;;;;;;;;5028838;28;20204;-79
2021/09/28 13:03:35;;;;;;;8.97;3.60;;;;;;;;;;5040340;28;20181;-78
2021/09/28 13:06:43;;;;;;;6.30;3.63;;;;;;;;;;5017647;28;20647;-78
2021/09/28 13:09:49;;;;;;;6.03;3.10;;;;;;;;;;5029509;28;20651;-80
2021/09/28 13:12:53;;;;;;;4.93;3.03;;;;;;;;;;5017176;28;20181;-79
2021/09/28 13:15:59;;;;;;;10.10;3.27;;;;;;;;;;5028570;28;20224;-78
2021/09/28 13:19:03;;;;;;;4.17;3.40;;;;;;;;;;5027927;28;20525;-78
2021/09/28 13:22:07;;;;;;;3.47;2.87;;;;;;;;;;5039461;28;20683;-78
2021/09/28 13:25:13;;;;;;;4.60;2.80;;;;;;;;;;5025515;28;20185;-78
2021/09/28 13:28:17;;;;;;;4.77;3.00;;;;;;;;;;5025493;28;20509;-78
2021/09/28 13:31:21;;;;;;;5.90;3.33;;;;;;;;;;5025967;28;20220;-78
2021/09/28 13:34:27;;;;;;;4.80;3.07;;;;;;;;;;5038452;28;20180;-78
2021/09/28 13:37:31;;;;;;;3.13;2.67;;;;;;;;;;5026400;28;20220;-77
2021/09/28 13:40:36;;;;;;;9.37;2.87;;;;;;;;;;5039938;28;20212;-78
2021/09/28 13:43:40;;;;;;;7.97;3.27;;;;;;;;;;5041436;28;20201;-79
2021/09/28 13:46:45;;;;;;;6.53;3.27;;;;;;;;;;5028537;28;20193;-79
2021/09/28 13:49:49;;;;;;;16.23;3.50;;;;;;;;;;5039662;28;20184;-77
2021/09/28 13:52:53;;;;;;;5.43;3.37;;;;;;;;;;5038945;28;20188;-78
2021/09/28 13:55:57;;;;;;;3.30;2.67;;;;;;;;;;5027284;28;20208;-79
2021/09/28 13:59:01;;;;;;;8.13;3.20;;;;;;;;;;5028498;28;20180;-79
2021/09/28 14:02:06;;;;;;;5.37;3.30;;;;;;;;;;5027846;28;20221;-79
2021/09/28 14:05:10;;;;;;;7.17;2.80;;;;;;;;;;5040853;28;20180;-80
2021/09/28 14:08:14;;;;;;;10.13;3.63;;;;;;;;;;5027907;28;20624;-78
2021/09/28 14:11:18;;;;;;;7.27;3.30;;;;;;;;;;5038352;28;20220;-79
2021/09/28 14:14:22;;;;;;;8.00;2.90;;;;;;;;;;5039901;28;20185;-80
2021/09/28 14:17:27;;;;;;;8.53;2.63;;;;;;;;;;5041583;28;20216;-80
2021/09/28 14:20:31;;;;;;;5.47;2.77;;;;;;;;;;5029747;28;20627;-80
2021/09/28 14:23:36;;;;;;;5.33;2.67;;;;;;;;;;5029609;28;20172;-80
2021/09/28 14:26:41;;;;;;;4.47;3.17;;;;;;;;;;5007099;28;20177;-80
2021/09/28 14:29:45;;;;;;;4.13;2.77;;;;;;;;;;5018826;28;20185;-80
2021/09/28 14:32:49;;;;;;;3.07;2.57;;;;;;;;;;5018509;28;20184;-80
2021/09/28 14:35:54;;;;;;;4.40;2.87;;;;;;;;;;5006997;28;20181;-80
2021/09/28 14:38:58;;;;;;;4.63;3.17;;;;;;;;;;5018247;28;20180;-80
2021/09/28 14:42:02;;;;;;;4.20;2.93;;;;;;;;;;5040997;28;20232;-80
2021/09/28 14:45:06;;;;;;;4.43;2.67;;;;;;;;;;5018003;28;20185;-80
2021/09/28 14:48:11;;;;;;;3.47;2.87;;;;;;;;;;5039366;28;20181;-79
2021/09/28 14:51:15;;;;;;;8.63;3.33;;;;;;;;;;5023030;28;20216;-78
2021/09/28 14:54:30;;;;;;;9.03;3.73;;;;;;;;;;5037520;28;20200;-78
2021/09/28 14:57:51;;;;;;;8.47;3.60;;;;;;;;;;5016466;28;20209;-79
2021/09/28 15:01:02;;;;;;;7.07;3.00;;;;;;;;;;5015108;28;20224;-78
2021/09/28 15:04:06;;;;;;;8.20;2.73;;;;;;;;;;5026454;28;20185;-79
2021/09/28 15:07:10;;;;;;;19.63;4.30;;;;;;;;;;4993066;28;20639;-79
2021/09/28 15:10:14;;;;;;;10.70;4.03;;;;;;;;;;5029733;28;20199;-79
2021/09/28 15:13:18;;;;;;;7.83;3.40;;;;;;;;;;5028620;28;20181;-78
2021/09/28 15:16:22;;;;;;;9.73;3.70;;;;;;;;;;5042401;28;20204;-80
2021/09/28 15:19:28;;;;;;;6.20;3.67;;;;;;;;;;5029718;28;20188;-80
2021/09/28 15:22:32;;;;;;;5.23;3.73;;;;;;;;;;5009206;28;20225;-80
2021/09/28 15:25:36;;;;;;;6.43;3.13;;;;;;;;;;5032393;28;20188;-79
2021/09/28 15:28:41;;;;;;;9.20;3.70;;;;;;;;;;5008876;28;20185;-78
2021/09/28 15:32:07;;;;;;;7.97;3.53;;;;;;;;;;5040296;28;20220;-79
2021/09/28 15:35:11;;;;;;;7.53;4.13;;;;;;;;;;4998755;28;20514;-79
2021/09/28 15:38:54;;;;;;;5.43;4.23;;;;;;;;;;5017757;28;20201;-79
2021/09/28 15:41:58;;;;;;;6.63;4.67;;;;;;;;;;5028614;23;20589;-87
2021/09/28 15:45:04;;;;;;;11.47;7.93;;;;;;;;;;4985291;28;20178;-86
2021/09/28 15:48:08;;;;;;;13.27;8.90;;;;;;;;;;4969569;28;20268;-86
2021/09/28 15:51:12;;;;;;;5.70;4.77;;;;;;;;;;4985120;28;20226;-86
2021/09/28 15:54:18;;;;;;;6.60;4.40;;;;;;;;;;4983518;28;20186;-86
2021/09/28 15:57:25;;;;;;;4.87;4.37;;;;;;;;;;4984294;28;20214;-87
2021/09/28 16:00:29;;;;;;;4.23;3.83;;;;;;;;;;4984320;28;20194;-86
2021/09/28 16:03:33;;;;;;;6.60;4.47;;;;;;;;;;4978606;28;20187;-86
2021/09/28 16:06:37;;;;;;;8.47;4.80;;;;;;;;;;4992190;28;20186;-87
2021/09/28 16:09:43;;;;;;;5.77;4.77;;;;;;;;;;4982371;28;20661;-86
2021/09/28 16:12:47;;;;;;;4.90;4.40;;;;;;;;;;4967704;28;20191;-86
2021/09/28 16:15:52;;;;;;;7.93;5.10;;;;;;;;;;4973649;28;20202;-86
2021/09/28 16:18:56;;;;;;;5.77;4.40;;;;;;;;;;4968360;28;20187;-86
2021/09/28 16:22:01;;;;;;;5.73;4.10;;;;;;;;;;4962264;28;20214;-87
2021/09/28 16:25:05;;;;;;;6.30;4.80;;;;;;;;;;4973244;28;20194;-86
2021/09/28 16:28:11;;;;;;;10.07;4.70;;;;;;;;;;4969623;28;20187;-86
2021/09/28 16:31:15;;;;;;;16.57;5.27;;;;;;;;;;4975613;28;20581;-86
2021/09/28 16:34:20;;;;;;;9.60;5.47;;;;;;;;;;4972466;28;20186;-86
2021/09/28 16:37:24;;;;;;;19.47;5.77;;;;;;;;;;4964477;28;20207;-85
2021/09/28 16:40:28;;;;;;;15.17;6.43;;;;;;;;;;4973801;28;20206;-85
2021/09/28 16:43:33;;;;;;;7.60;6.27;;;;;;;;;;4966301;28;20641;-86
2021/09/28 16:46:45;;;;;;;7.77;6.27;;;;;;;;;;4972953;28;20202;-88
2021/09/28 16:49:49;;;;;;;11.67;9.40;;;;;;;;;;4991158;28;20194;-86
2021/09/28 16:52:44;;;;;;;16.17;11.93;;;;;;;;;;5004516;23;20233;-72
2021/09/28 16:55:49;;;;;;;22.00;16.60;;;;;;;;;;4995385;28;20189;-72
2021/09/28 16:58:53;;;;;;;27.47;18.83;;;;;;;;;;5004783;28;20213;-72
2021/09/28 17:01:57;;;;;;;39.50;23.07;;;;;;;;;;5013701;28;20236;-72
2021/09/28 17:05:01;;;;;;;19.33;15.50;;;;;;;;;;5012444;28;20208;-72
2021/09/28 17:08:06;;;;;;;18.37;11.50;;;;;;;;;;5013703;28;20181;-72
2021/09/28 17:11:10;;;;;;;20.43;12.77;;;;;;;;;;5011547;28;20509;-72
2021/09/28 17:14:15;;;;;;;16.47;10.93;;;;;;;;;;5010618;28;20196;-72
2021/09/28 17:17:19;;;;;;;27.80;14.57;;;;;;;;;;5010438;28;20221;-72
2021/09/28 17:20:23;;;;;;;21.20;15.60;;;;;;;;;;5010486;28;20216;-72
2021/09/28 17:23:28;;;;;;;17.27;12.97;;;;;;;;;;5010241;28;20204;-72
2021/09/28 17:26:33;;;;;;;14.87;10.93;;;;;;;;;;5010369;28;20204;-72
2021/09/28 17:29:37;;;;;;;15.10;9.00;;;;;;;;;;5010449;28;20200;-72
2021/09/28 17:32:42;;;;;;;11.03;8.93;;;;;;;;;;5010273;28;20225;-72
2021/09/28 17:35:46;;;;;;;10.30;9.07;;;;;;;;;;4997744;28;20177;-72
2021/09/28 17:38:50;;;;;;;18.73;12.63;;;;;;;;;;5010096;28;20209;-72
2021/09/28 17:41:54;;;;;;;25.60;17.93;;;;;;;;;;5010168;28;20232;-72
2021/09/28 17:45:00;;;;;;;27.30;18.47;;;;;;;;;;5010204;28;20550;-72
2021/09/28 17:48:05;;;;;;;25.83;19.13;;;;;;;;;;5009251;28;20204;-72
2021/09/28 17:51:09;;;;;;;28.67;21.20;;;;;;;;;;5010129;28;20244;-72
2021/09/28 17:54:13;;;;;;;20.57;15.90;;;;;;;;;;5010054;28;20196;-72
2021/09/28 17:57:22;;;;;;;15.13;12.73;;;;;;;;;;5009959;28;20212;-72
2021/09/28 18:00:27;;;;;;;14.17;11.60;;;;;;;;;;5009685;28;20193;-72
2021/09/28 18:03:31;;;;;;;13.97;10.57;;;;;;;;;;5010104;28;20188;-72
2021/09/28 18:06:35;;;;;;;8.90;7.27;;;;;;;;;;5010024;28;20196;-72
2021/09/28 18:09:41;;;;;;;10.10;7.13;;;;;;;;;;5009825;28;20173;-72
2021/09/28 18:12:46;;;;;;;11.47;7.67;;;;;;;;;;5010084;28;20185;-72
2021/09/28 18:15:51;;;;;;;8.60;7.60;;;;;;;;;;5009845;28;20533;-72
2021/09/28 18:18:56;;;;;;;10.27;7.57;;;;;;;;;;5009536;28;20221;-72
2021/09/28 18:22:01;;;;;;;8.80;7.73;;;;;;;;;;5009346;28;20228;-72
2021/09/28 18:25:07;;;;;;;12.10;8.30;;;;;;;;;;5009391;28;20525;-72
2021/09/28 18:28:13;;;;;;;9.40;8.47;;;;;;;;;;5009713;28;20182;-72